createdAt,value
2023-01-20T05:47:36.510Z,4.17
2023-01-20T05:53:49.235Z,4.07
2023-01-20T05:55:07.315Z,4.19
2023-01-20T06:00:53.086Z,4.15
2023-01-20T06:02:05.649Z,4.10
2023-01-20T06:03:41.445Z,4.17
2023-01-20T06:04:57.025Z,4.12
2023-01-20T06:06:19.479Z,4.20
2023-01-20T06:07:35.071Z,4.12
2023-01-20T06:08:54.842Z,4.16
2023-01-20T06:10:44.667Z,4.21
2023-01-20T06:11:57.697Z,4.17
2023-01-20T18:50:55.159Z,3.94
2023-01-20T18:52:33.788Z,3.88
2023-01-20T18:54:02.769Z,3.84
2023-01-20T18:55:28.437Z,3.76
2023-01-20T18:57:23.365Z,3.87
2023-01-20T18:59:10.265Z,3.88
2023-01-20T19:00:21.209Z,3.86
2023-01-20T19:01:29.031Z,3.87
2023-01-20T19:02:38.462Z,3.76
2023-01-20T19:03:48.024Z,3.75
2023-01-20T19:04:57.641Z,3.77
2023-01-20T19:06:18.629Z,3.67
2023-01-20T19:07:30.904Z,3.69
2023-01-20T19:08:55.506Z,3.70
2023-01-20T19:10:06.991Z,3.67
2023-01-20T19:11:19.225Z,3.64
2023-01-20T19:12:28.817Z,3.57
2023-01-20T19:13:42.924Z,3.57
2023-01-20T19:14:54.279Z,3.54
2023-01-20T19:16:04.024Z,3.53
2023-01-20T19:17:58.585Z,3.52
2023-01-20T19:19:27.096Z,3.47
2023-01-20T19:21:06.468Z,3.53
2023-01-20T19:22:14.894Z,3.50
2023-01-20T19:23:19.683Z,3.49
2023-01-20T19:24:32.324Z,3.43
2023-01-20T19:25:36.694Z,3.48
2023-01-20T19:32:39.505Z,3.37
2023-01-20T19:34:03.052Z,3.43
2023-01-20T19:35:13.387Z,3.36
2023-01-20T19:36:33.906Z,3.41
2023-01-20T19:38:10.116Z,3.38
2023-01-20T19:42:28.181Z,3.40
2023-01-20T19:43:33.261Z,3.30
2023-01-20T19:44:42.901Z,3.23
2023-01-20T19:45:56.219Z,3.38
2023-01-20T19:47:23.610Z,3.33
2023-01-20T19:48:47.498Z,3.32
2023-01-20T19:58:16.780Z,3.21
2023-01-20T19:59:42.523Z,3.13
2023-01-20T20:00:56.148Z,3.15
2023-01-20T20:02:16.327Z,3.15
2023-01-20T20:03:57.417Z,3.12
2023-01-20T20:05:34.608Z,3.07
2023-01-20T20:06:50.215Z,3.13
2023-01-20T21:35:21.213Z,2.11
2023-01-20T22:00:19.018Z,2.12
2023-01-20T22:09:25.380Z,2.01
2023-01-20T22:10:32.167Z,1.99
2023-01-20T22:11:42.446Z,1.96
2023-01-20T22:12:52.673Z,1.96
2023-01-20T22:13:57.145Z,2.04
2023-01-20T22:15:07.732Z,2.09
2023-01-20T22:16:16.101Z,2.07
2023-01-20T22:17:23.121Z,2.10
2023-01-20T22:18:27.421Z,2.00
2023-01-20T22:19:34.818Z,2.10
2023-01-20T22:20:41.860Z,2.03
2023-01-20T22:21:47.430Z,2.07
2023-01-20T22:22:51.722Z,2.04
2023-01-20T22:23:55.082Z,2.05
2023-01-20T22:25:00.869Z,2.03
2023-01-20T22:26:08.204Z,2.06
2023-01-20T22:27:21.169Z,2.10
2023-01-20T22:28:26.325Z,1.99
2023-01-20T22:29:35.080Z,2.05
2023-01-20T22:30:38.421Z,2.05
2023-01-20T22:31:46.522Z,2.03
2023-01-20T22:32:53.470Z,2.06
2023-01-20T22:34:00.039Z,2.09
2023-01-20T22:35:04.943Z,2.13
2023-01-20T22:36:28.156Z,1.97
2023-01-20T22:38:52.070Z,2.03
2023-01-20T22:39:56.321Z,2.09
2023-01-20T22:41:11.503Z,2.11
2023-01-20T22:59:19.941Z,1.80
2023-01-20T23:00:24.411Z,1.92
2023-01-20T23:01:35.633Z,1.86
2023-01-20T23:02:41.610Z,1.88
2023-01-20T23:03:50.500Z,1.78
2023-01-20T23:04:55.116Z,1.81
2023-01-20T23:06:00.646Z,1.83
2023-01-20T23:07:08.338Z,1.88
2023-01-20T23:08:12.632Z,1.84
2023-01-20T23:09:18.600Z,1.85
2023-01-20T23:10:42.399Z,1.82
2023-01-20T23:11:46.272Z,1.91
2023-01-20T23:12:52.037Z,1.83
2023-01-20T23:13:55.343Z,1.84
2023-01-20T23:15:03.050Z,1.86
